Van Buren, Washington
Current Conditions -  °F | °C
As of 7:00 AM on Saturday 25 Oct 2014 (Local Time) from CYXX Reporting Station
Broken Clouds Broken Clouds  
Wind Chill: 46°   Ceiling: 8000
Heat Index: 48°   Visibility: 15mi
Dew Point: 45°   Wind: 6mph
Humidity: 87%   Direction: 50°NE
Pressure: 29.5"   Gusts: NA
Location:  48.9068°N, 122.295°W
Report Text: CYXX 251400Z 05005KT 15SM SCT040 BKN080 BKN120 BKN210 09/07 A2950 RMK SC3AC2AC1CI1 CI TR SLP991
Loading
Personal Weather Stations






























Interactive Weather Map New forecast layout! Learn more

10-Day Weather Forecast

Advertisements
Track Severe Weather on mobile